createdAt,value
2023-03-03T00:25:00.804Z,27.37
2023-03-03T00:30:24.325Z,27.07
2023-03-03T00:35:30.853Z,28.23
2023-03-03T00:40:54.459Z,26.77
2023-03-03T00:53:43.950Z,26.07
2023-03-03T01:05:49.024Z,27.90
2023-03-03T01:29:52.828Z,28.37
2023-03-03T01:34:57.239Z,27.90
2023-03-03T01:39:56.444Z,28.33
2023-03-03T01:45:21.267Z,28.73
2023-03-03T01:50:44.244Z,27.33
2023-03-03T02:29:06.518Z,29.20
2023-03-03T02:34:40.391Z,28.43
2023-03-03T02:47:15.765Z,29.07
2023-03-03T02:54:04.640Z,28.63
2023-03-03T03:07:16.143Z,28.83
2023-03-03T03:13:51.815Z,29.70
2023-03-03T03:53:58.844Z,30.10
2023-03-03T04:02:09.596Z,28.53
2023-03-03T04:06:11.703Z,29.90
2023-03-03T04:51:59.662Z,29.87
2023-03-03T04:57:48.351Z,28.20
2023-03-03T05:36:26.615Z,32.17
2023-03-03T05:42:15.432Z,31.20
2023-03-03T05:47:31.285Z,33.33
2023-03-03T05:53:04.796Z,31.93
2023-03-03T05:57:59.111Z,32.63
2023-03-03T06:02:53.760Z,35.10
2023-03-03T06:07:47.086Z,35.70
2023-03-03T06:12:42.219Z,38.70
2023-03-03T06:17:35.500Z,47.33
2023-03-03T06:22:30.092Z,39.37
2023-03-03T06:27:23.304Z,35.57
2023-03-03T06:32:16.498Z,36.30
2023-03-03T06:37:09.706Z,41.67
2023-03-03T06:42:04.290Z,36.17
2023-03-03T06:46:58.957Z,33.33
2023-03-03T06:51:52.396Z,33.80
2023-03-03T06:56:47.002Z,35.10
2023-03-03T07:01:42.070Z,33.33
2023-03-03T07:06:35.364Z,32.37
2023-03-03T07:11:28.508Z,31.97
2023-03-03T07:16:26.374Z,32.38
2023-03-03T07:21:23.142Z,36.60
2023-03-03T07:26:18.920Z,37.50
2023-03-03T07:31:28.583Z,36.63
2023-03-03T07:36:30.339Z,30.33
2023-03-03T07:41:24.620Z,29.77
2023-03-03T07:46:33.622Z,28.77
2023-03-03T07:51:31.916Z,28.88
2023-03-03T07:56:31.201Z,32.03
2023-03-03T08:01:42.642Z,34.67
2023-03-03T08:06:45.629Z,29.95
2023-03-03T08:11:47.943Z,29.83
2023-03-03T08:16:41.691Z,30.00
2023-03-03T08:21:37.089Z,30.77
2023-03-03T08:26:31.610Z,32.97
2023-03-03T08:31:39.898Z,31.58
2023-03-03T08:36:34.929Z,30.15
2023-03-03T08:41:28.511Z,29.90
2023-03-03T08:46:23.354Z,29.52
2023-03-03T08:51:16.690Z,29.92
2023-03-03T08:56:10.604Z,29.73
2023-03-03T09:01:04.397Z,31.13
2023-03-03T09:05:59.161Z,29.00
2023-03-03T09:10:52.458Z,28.55
2023-03-03T09:15:45.872Z,26.38
2023-03-03T09:20:40.502Z,27.73
2023-03-03T09:25:37.822Z,28.00
2023-03-03T09:30:44.334Z,27.40
2023-03-03T09:35:41.352Z,29.73
2023-03-03T09:40:54.063Z,28.08
2023-03-03T09:46:02.271Z,27.77
2023-03-03T09:51:06.917Z,27.95
2023-03-03T09:56:13.709Z,26.92
2023-03-03T10:01:25.489Z,28.73
2023-03-03T10:06:26.629Z,28.20
2023-03-03T10:11:26.179Z,27.98
2023-03-03T10:16:37.563Z,45.45
2023-03-03T10:21:37.577Z,29.13
2023-03-03T10:26:57.919Z,28.50
2023-03-03T10:32:25.912Z,29.33
2023-03-03T10:37:27.595Z,30.63
2023-03-03T10:42:45.094Z,28.27
2023-03-03T10:48:04.222Z,29.17
2023-03-03T10:53:13.618Z,28.58
2023-03-03T10:58:26.729Z,28.35
2023-03-03T11:03:57.800Z,28.70
2023-03-03T11:08:56.749Z,29.30
2023-03-03T11:13:57.893Z,28.63
2023-03-03T11:19:02.393Z,27.13
2023-03-03T11:24:03.421Z,27.40
2023-03-03T11:29:17.356Z,27.30
2023-03-03T11:34:25.601Z,26.10
2023-03-03T11:39:21.898Z,28.08
2023-03-03T11:44:25.653Z,27.90
2023-03-03T11:49:26.572Z,27.23
2023-03-03T11:54:25.136Z,25.88
2023-03-03T11:59:36.957Z,29.33
2023-03-03T12:04:36.103Z,27.98
2023-03-03T12:09:41.488Z,27.77
2023-03-03T12:14:53.619Z,28.38
2023-03-03T12:19:54.985Z,27.95
2023-03-03T12:25:02.504Z,29.88
2023-03-03T12:30:07.658Z,31.00
2023-03-03T12:35:07.760Z,36.95
2023-03-03T12:40:10.046Z,33.88
2023-03-03T12:45:13.346Z,32.30
2023-03-03T12:50:37.036Z,37.28
2023-03-03T12:55:40.326Z,32.72
2023-03-03T13:00:45.191Z,34.15
2023-03-03T13:05:52.975Z,33.40
2023-03-03T13:10:55.819Z,33.00
2023-03-03T13:16:06.026Z,34.33
2023-03-03T13:21:07.028Z,34.65
2023-03-03T13:26:04.586Z,35.75
2023-03-03T13:31:04.401Z,33.05
2023-03-03T13:36:00.963Z,39.80
2023-03-03T13:41:05.588Z,36.85
2023-03-03T13:46:09.618Z,32.30
2023-03-03T13:51:11.251Z,35.47
2023-03-03T13:56:15.942Z,34.28
2023-03-03T14:01:19.826Z,36.33
2023-03-03T14:06:16.374Z,30.85
2023-03-03T14:11:13.122Z,34.50
2023-03-03T14:16:10.839Z,32.03
2023-03-03T14:21:12.435Z,37.92
2023-03-03T14:26:13.433Z,42.58
2023-03-03T14:31:18.613Z,42.00
2023-03-03T14:36:16.373Z,39.50
2023-03-03T14:41:17.025Z,36.00
2023-03-03T14:46:33.553Z,40.90
2023-03-03T14:51:31.221Z,45.03
2023-03-03T14:56:27.374Z,40.05
2023-03-03T15:01:31.600Z,38.72
2023-03-03T15:06:37.315Z,36.92
2023-03-03T15:11:34.589Z,36.05
2023-03-03T15:16:34.282Z,35.22
2023-03-03T15:21:34.295Z,34.13
2023-03-03T15:26:40.303Z,33.40
2023-03-03T15:31:45.791Z,34.85
2023-03-03T15:36:45.722Z,34.72
2023-03-03T15:41:44.791Z,35.83
2023-03-03T15:46:52.969Z,39.58
2023-03-03T15:52:12.550Z,39.70
2023-03-03T15:57:13.299Z,46.00
2023-03-03T16:02:17.251Z,40.35
2023-03-03T16:07:21.946Z,36.13
2023-03-03T16:12:24.036Z,39.25
2023-03-03T16:17:36.627Z,39.83
2023-03-03T16:22:48.742Z,39.17
2023-03-03T16:27:47.808Z,44.00
2023-03-03T16:32:47.739Z,46.17
2023-03-03T16:37:51.872Z,44.80
2023-03-03T16:42:45.150Z,53.72
2023-03-03T16:47:54.781Z,52.42
2023-03-03T16:52:59.104Z,46.25
2023-03-03T16:58:09.954Z,55.90
2023-03-03T17:03:25.499Z,64.70
2023-03-03T17:08:49.441Z,58.28
2023-03-03T17:13:58.535Z,50.75
2023-03-03T17:19:06.881Z,54.28
2023-03-03T17:24:09.799Z,59.42
2023-03-03T17:29:21.965Z,51.72
2023-03-03T17:34:32.529Z,47.25
2023-03-03T17:40:03.915Z,43.33
2023-03-03T17:45:13.697Z,49.83
2023-03-03T17:50:26.421Z,50.03
2023-03-03T17:55:43.051Z,51.95
2023-03-03T18:00:57.164Z,51.47
2023-03-03T18:06:10.557Z,47.08
2023-03-03T18:11:21.453Z,43.45
2023-03-03T18:16:26.626Z,43.40
2023-03-03T18:21:26.144Z,50.63
2023-03-03T18:26:39.089Z,41.85
2023-03-03T18:31:48.293Z,42.70
2023-03-03T18:36:55.051Z,42.67
2023-03-03T18:42:10.293Z,45.97
2023-03-03T18:47:04.106Z,44.25
2023-03-03T18:52:23.046Z,42.65
2023-03-03T18:57:21.850Z,45.63
2023-03-03T19:02:30.352Z,44.90
2023-03-03T19:07:37.073Z,40.67
2023-03-03T19:12:59.255Z,40.78
2023-03-03T19:18:26.825Z,39.78
2023-03-03T19:23:30.117Z,43.38
2023-03-03T19:28:39.670Z,42.78
2023-03-03T19:33:56.907Z,45.13
2023-03-03T19:39:20.068Z,45.33
2023-03-03T19:44:34.386Z,43.20
2023-03-03T19:50:09.307Z,43.27
2023-03-03T19:55:32.452Z,43.67
2023-03-03T20:00:38.550Z,44.83
2023-03-03T20:05:46.572Z,43.60
2023-03-03T20:10:51.976Z,47.10
2023-03-03T20:15:56.661Z,48.00
2023-03-03T20:21:06.270Z,46.80
2023-03-03T20:26:04.528Z,45.93
2023-03-03T20:31:12.541Z,49.80
2023-03-03T20:36:19.450Z,46.23
2023-03-03T20:41:24.465Z,46.63
2023-03-03T20:46:29.236Z,51.83
2023-03-03T20:51:31.561Z,47.63
2023-03-03T20:56:32.087Z,47.10
2023-03-03T21:01:41.774Z,47.15
2023-03-03T22:35:25.091Z,46.23
2023-03-03T23:10:07.750Z,44.97
2023-03-03T23:30:05.773Z,44.17
2023-03-03T23:35:09.418Z,44.38
2023-03-03T23:40:18.811Z,46.63
